Time;durP1;ratioP1;P1;durP2;ratioP2;P2;SDS_P1;SDS_P2;PMS_P1;PMS_P2;Temp;Humidity;BMP_temperature;BMP_pressure;BME280_temperature;BME280_humidity;BME280_pressure;Samples;Min_cycle;Max_cycle;Signal;HPM_P1;HPM_P2
2021/03/01 00:01:39;;;;;;;11.07;7.50;;;3.50;99.90;;;-141.85;100.00;63675.41;5013435;28;20302;-63
2021/03/01 00:04:06;;;;;;;12.73;7.50;;;3.50;99.90;;;-141.85;100.00;63675.41;5013418;28;20209;-63
2021/03/01 00:06:34;;;;;;;13.70;8.03;;;3.50;99.90;;;-141.85;100.00;63675.41;5013530;28;20238;-63
2021/03/01 00:09:01;;;;;;;13.70;8.63;;;3.60;99.90;;;-141.85;100.00;63675.41;5013114;28;20207;-63
2021/03/01 00:11:28;;;;;;;14.50;8.93;;;3.60;99.90;;;-141.85;100.00;63675.41;5012986;28;20248;-64
2021/03/01 00:13:55;;;;;;;12.87;8.27;;;3.50;99.90;;;-141.85;100.00;63675.41;5013391;28;20206;-63
2021/03/01 00:16:23;;;;;;;11.50;7.63;;;3.50;99.90;;;-141.85;100.00;63675.41;5013013;28;20207;-63
2021/03/01 00:18:50;;;;;;;13.27;8.37;;;3.40;99.90;;;-141.85;100.00;63675.41;5013152;28;20210;-65
2021/03/01 00:21:17;;;;;;;14.40;9.20;;;3.60;99.90;;;-141.85;100.00;63675.41;5013269;28;20316;-63
2021/03/01 00:23:44;;;;;;;15.37;8.63;;;3.40;99.90;;;-141.85;100.00;63675.41;5012865;28;20207;-62
2021/03/01 00:26:11;;;;;;;13.20;7.97;;;3.40;99.90;;;-141.85;100.00;63675.41;5012937;28;20287;-62
2021/03/01 00:28:38;;;;;;;11.20;8.07;;;3.50;99.90;;;-141.85;100.00;63675.41;5013241;28;20650;-63
2021/03/01 00:31:05;;;;;;;13.23;8.77;;;3.60;99.90;;;-141.85;100.00;63675.41;5013194;28;20197;-63
2021/03/01 00:33:33;;;;;;;12.43;7.97;;;3.60;99.90;;;-141.85;100.00;63675.41;5013084;28;20304;-62
2021/03/01 00:36:00;;;;;;;12.20;8.37;;;3.70;99.90;;;-141.85;100.00;63675.41;5011743;28;20233;-62
2021/03/01 00:38:28;;;;;;;14.77;8.90;;;3.70;99.90;;;-141.85;100.00;63675.41;5012742;28;20205;-63
2021/03/01 00:40:55;;;;;;;14.30;8.50;;;3.70;99.90;;;-141.85;100.00;63675.41;5012338;28;21007;-62
2021/03/01 00:43:22;;;;;;;15.20;8.87;;;3.70;99.90;;;-141.85;100.00;63675.41;5012661;28;20201;-62
2021/03/01 00:45:49;;;;;;;12.00;8.33;;;3.70;99.90;;;-141.85;100.00;63675.41;5012617;28;20620;-62
2021/03/01 00:48:16;;;;;;;13.10;8.63;;;3.70;99.90;;;-141.85;100.00;63675.41;5012666;28;20214;-63
2021/03/01 00:50:44;;;;;;;12.70;7.40;;;3.70;99.90;;;-141.85;100.00;63675.41;5012759;28;20198;-64
2021/03/01 00:53:19;;;;;;;13.40;8.00;;;3.60;99.90;;;-141.85;100.00;63675.41;5012268;28;20237;-63
2021/03/01 00:55:46;;;;;;;12.73;8.00;;;3.60;99.90;;;-141.85;100.00;63675.41;5012217;28;20221;-63
2021/03/01 00:58:13;;;;;;;12.53;8.80;;;3.80;99.90;;;-141.85;100.00;63675.41;5012384;28;20209;-63
2021/03/01 01:00:42;;;;;;;14.03;8.47;;;3.60;99.90;;;-141.85;100.00;63675.41;5012751;28;20227;-62
2021/03/01 01:03:09;;;;;;;13.73;8.47;;;3.50;99.90;;;-141.85;100.00;63675.41;5012447;28;20676;-64
2021/03/01 01:05:36;;;;;;;12.93;8.47;;;3.50;99.90;;;-141.85;100.00;63675.41;5012689;28;20230;-62
2021/03/01 01:08:06;;;;;;;11.93;8.00;;;3.60;99.90;;;-141.85;100.00;63675.41;5012297;28;20220;-62
2021/03/01 01:10:34;;;;;;;14.33;8.20;;;3.60;99.90;;;-141.85;100.00;63675.41;5012448;28;20293;-62
2021/03/01 01:13:01;;;;;;;13.20;8.07;;;3.70;99.90;;;-141.85;100.00;63675.41;5012295;28;20221;-62
2021/03/01 01:15:28;;;;;;;12.93;8.70;;;3.70;99.90;;;-141.85;100.00;63675.41;5012609;28;20246;-63
2021/03/01 01:17:55;;;;;;;13.17;7.90;;;3.60;99.90;;;-141.85;100.00;63675.41;5014982;28;20302;-63
2021/03/01 01:20:23;;;;;;;13.10;8.30;;;3.60;99.90;;;-141.85;100.00;63675.41;5014656;28;20237;-63
2021/03/01 01:22:50;;;;;;;14.83;9.00;;;3.70;99.90;;;-141.85;100.00;63675.41;5012994;28;20264;-61
2021/03/01 01:25:19;;;;;;;14.33;8.67;;;3.80;99.90;;;-141.85;100.00;63675.41;5012501;28;20277;-62
2021/03/01 01:27:46;;;;;;;13.27;8.13;;;3.60;99.90;;;-141.85;100.00;63675.41;5012186;28;20311;-63
2021/03/01 01:30:18;;;;;;;15.90;8.27;;;3.60;99.90;;;-141.85;100.00;63675.41;5012110;28;20296;-63
2021/03/01 01:32:45;;;;;;;14.23;8.63;;;3.60;99.90;;;-141.85;100.00;63675.41;5012297;28;20272;-63
2021/03/01 01:35:14;;;;;;;12.60;8.00;;;3.60;99.90;;;-141.85;100.00;63675.41;5011968;28;20751;-63
2021/03/01 01:37:41;;;;;;;13.13;8.60;;;3.70;99.90;;;-141.85;100.00;63675.41;5011921;28;20249;-63
2021/03/01 01:40:12;;;;;;;14.70;8.00;;;3.70;99.90;;;-141.85;100.00;63675.41;5011697;28;20762;-62
2021/03/01 01:42:41;;;;;;;14.77;9.03;;;3.60;99.90;;;-141.85;100.00;63675.41;5012175;28;20283;-63
2021/03/01 01:45:12;;;;;;;13.87;8.27;;;3.60;99.90;;;-141.85;100.00;63675.41;5011798;28;20748;-63
2021/03/01 01:47:39;;;;;;;13.43;7.97;;;3.60;99.90;;;-141.85;100.00;63675.41;5012012;28;20233;-63
2021/03/01 01:50:08;;;;;;;14.67;8.47;;;3.50;99.90;;;-141.85;100.00;63675.41;5011750;28;20281;-62
2021/03/01 01:52:36;;;;;;;14.20;8.73;;;3.50;99.90;;;-141.85;100.00;63675.41;5011645;28;20198;-63
2021/03/01 01:55:06;;;;;;;15.03;8.70;;;3.50;99.90;;;-141.85;100.00;63675.41;5011526;28;20299;-62
2021/03/01 01:57:35;;;;;;;13.87;8.03;;;3.60;99.90;;;-141.85;100.00;63675.41;4992124;28;20191;-63
2021/03/01 02:00:08;;;;;;;11.60;7.80;;;3.60;99.90;;;-141.85;100.00;63675.41;4992195;28;20314;-62
2021/03/01 02:02:35;;;;;;;13.47;8.30;;;3.60;99.90;;;-141.85;100.00;63675.41;4992372;28;20274;-63
2021/03/01 02:05:07;;;;;;;14.13;8.33;;;3.60;99.90;;;-141.85;100.00;63675.41;4992298;28;20241;-63
2021/03/01 02:07:51;;;;;;;12.33;7.70;;;3.60;99.90;;;-141.85;100.00;63675.41;4991869;28;20618;-63
2021/03/01 02:10:28;;;;;;;14.80;7.77;;;3.60;99.90;;;-141.85;100.00;63675.41;4991371;28;20227;-61
2021/03/01 02:13:08;;;;;;;12.67;7.27;;;3.50;99.90;;;-141.85;100.00;63675.41;4992142;28;20257;-62
2021/03/01 02:15:47;;;;;;;12.20;7.23;;;3.40;99.90;;;-141.85;100.00;63675.41;4992264;28;20282;-62
2021/03/01 02:18:15;;;;;;;11.53;7.33;;;3.20;99.90;;;-141.85;100.00;63675.41;4992288;28;20224;-63
2021/03/01 02:20:44;;;;;;;12.40;7.60;;;3.20;99.90;;;-141.85;100.00;63675.41;4991909;28;20223;-62
2021/03/01 02:23:14;;;;;;;12.20;7.20;;;3.10;99.90;;;-141.85;100.00;63675.41;4991960;28;20294;-64
2021/03/01 02:25:49;;;;;;;11.07;7.03;;;3.10;99.90;;;-141.85;100.00;63675.41;4991971;28;20269;-61
2021/03/01 02:28:21;;;;;;;12.43;7.37;;;3.10;99.90;;;-141.85;100.00;63675.41;4992248;28;20280;-63
2021/03/01 02:30:55;;;;;;;12.30;7.03;;;3.20;99.90;;;-141.85;100.00;63675.41;4992202;28;20190;-62
2021/03/01 02:33:27;;;;;;;12.83;7.60;;;3.30;99.90;;;-141.85;100.00;63675.41;4992255;28;20209;-62
2021/03/01 02:35:59;;;;;;;12.33;7.10;;;3.30;99.90;;;-141.85;100.00;63675.41;4991793;28;20316;-63
2021/03/01 02:38:30;;;;;;;11.50;6.50;;;3.30;99.90;;;-141.85;100.00;63675.41;4991706;28;20270;-62
2021/03/01 02:40:59;;;;;;;11.13;6.10;;;3.40;99.90;;;-141.85;100.00;63675.41;4991774;28;20305;-63
2021/03/01 02:43:30;;;;;;;11.40;6.70;;;3.40;99.90;;;-141.85;100.00;63675.41;4992037;28;20228;-63
2021/03/01 02:46:00;;;;;;;11.67;6.90;;;3.50;99.90;;;-141.85;100.00;63675.41;4992097;28;20191;-63
2021/03/01 02:48:30;;;;;;;11.90;7.07;;;3.50;99.90;;;-141.85;100.00;63675.41;4991655;28;20209;-63
2021/03/01 02:50:58;;;;;;;12.87;7.10;;;3.50;99.90;;;-141.85;100.00;63675.41;4992074;28;20292;-63
2021/03/01 02:53:29;;;;;;;12.17;7.27;;;3.40;99.90;;;-141.85;100.00;63675.41;4991368;28;20672;-62
2021/03/01 02:55:58;;;;;;;13.10;7.30;;;3.50;99.90;;;-141.85;100.00;63675.41;4998180;28;20321;-63
2021/03/01 02:58:29;;;;;;;12.80;7.43;;;3.50;99.90;;;-141.85;100.00;63675.41;5011468;28;20583;-62
2021/03/01 03:01:00;;;;;;;11.47;7.40;;;3.70;99.90;;;-141.85;100.00;63675.41;5014387;28;20333;-63
2021/03/01 03:03:30;;;;;;;11.73;7.20;;;3.80;99.90;;;-141.85;100.00;63675.41;5014725;28;20197;-63
2021/03/01 03:05:57;;;;;;;13.80;7.70;;;3.70;99.90;;;-141.85;100.00;63675.41;5014898;28;20291;-62
2021/03/01 03:08:25;;;;;;;10.77;6.27;;;3.70;99.90;;;-141.85;100.00;63675.41;5014693;28;20231;-63
2021/03/01 03:10:54;;;;;;;13.13;7.20;;;3.60;99.90;;;-141.85;100.00;63675.41;5014455;28;20621;-63
2021/03/01 03:13:22;;;;;;;12.60;7.37;;;3.60;99.90;;;-141.85;100.00;63675.41;5014777;28;20316;-64
2021/03/01 03:15:53;;;;;;;13.27;7.20;;;3.50;99.90;;;-141.85;100.00;63675.41;5014438;28;20300;-62
2021/03/01 03:18:24;;;;;;;10.63;6.00;;;3.50;99.90;;;-141.85;100.00;63675.41;5014304;28;20609;-64
2021/03/01 03:20:53;;;;;;;11.67;7.60;;;3.50;99.90;;;-141.85;100.00;63675.41;5013963;28;20538;-63
2021/03/01 03:23:20;;;;;;;12.60;7.37;;;3.40;99.90;;;-141.85;100.00;63675.41;5014178;28;20307;-63
2021/03/01 03:25:48;;;;;;;10.90;6.63;;;3.30;99.90;;;-141.85;100.00;63675.41;5013761;28;20292;-62
2021/03/01 03:28:16;;;;;;;11.17;6.70;;;3.20;99.90;;;-141.85;100.00;63675.41;5014316;28;20240;-63
2021/03/01 03:30:43;;;;;;;10.97;6.60;;;3.20;99.90;;;-141.85;100.00;63675.41;5014039;28;20636;-63
2021/03/01 03:33:10;;;;;;;11.93;6.43;;;3.20;99.90;;;-141.85;100.00;63675.41;5014344;28;20302;-63
2021/03/01 03:35:38;;;;;;;11.30;6.27;;;3.20;99.90;;;-141.85;100.00;63675.41;5013870;28;20229;-64
2021/03/01 03:38:13;;;;;;;9.83;6.13;;;3.30;99.90;;;-141.85;100.00;63675.41;5014066;28;20287;-63
2021/03/01 03:40:46;;;;;;;9.70;6.13;;;3.30;99.90;;;-141.85;100.00;63675.41;5013864;28;20242;-62
2021/03/01 03:43:15;;;;;;;10.13;5.43;;;3.30;99.90;;;-141.85;100.00;63675.41;5014020;28;20189;-62
2021/03/01 03:45:45;;;;;;;9.17;5.27;;;3.30;99.90;;;-141.85;100.00;63675.41;5013722;28;20233;-63
2021/03/01 03:48:15;;;;;;;9.70;5.83;;;3.30;99.90;;;-141.85;100.00;63675.41;5013921;28;20617;-62
2021/03/01 03:50:43;;;;;;;10.33;5.97;;;3.30;99.90;;;-141.85;100.00;63675.41;5013698;28;20915;-62
2021/03/01 03:53:15;;;;;;;9.93;5.70;;;3.30;99.90;;;-141.85;100.00;63675.41;5013222;28;20309;-62
2021/03/01 03:55:48;;;;;;;8.83;5.53;;;3.40;99.90;;;-141.85;100.00;63675.41;5013359;28;20195;-63
2021/03/01 03:58:22;;;;;;;9.37;5.70;;;3.30;99.90;;;-141.85;100.00;63675.41;5013841;28;20240;-63
2021/03/01 04:00:56;;;;;;;8.20;5.33;;;3.40;99.90;;;-141.85;100.00;63675.41;5013712;28;20246;-62
2021/03/01 04:03:27;;;;;;;7.83;4.90;;;3.40;99.90;;;-141.85;100.00;63675.41;5013766;28;20184;-63
2021/03/01 04:05:56;;;;;;;10.63;5.70;;;3.30;99.90;;;-141.85;100.00;63675.41;5013331;28;20180;-61
2021/03/01 04:08:29;;;;;;;9.77;5.63;;;3.50;99.90;;;-141.85;100.00;63675.41;5013624;28;20210;-63
2021/03/01 04:10:59;;;;;;;8.07;4.90;;;3.40;99.90;;;-141.85;100.00;63675.41;5013000;28;20688;-62
2021/03/01 04:13:31;;;;;;;9.60;5.77;;;3.30;99.90;;;-141.85;100.00;63675.41;5013686;28;20210;-63
2021/03/01 04:15:59;;;;;;;9.77;5.70;;;3.30;99.90;;;-141.85;100.00;63675.41;5013196;28;20278;-61
2021/03/01 04:18:33;;;;;;;9.10;5.80;;;3.30;99.90;;;-141.85;100.00;63675.41;5013409;28;20244;-63
2021/03/01 04:21:07;;;;;;;9.73;6.13;;;3.30;99.90;;;-141.85;100.00;63675.41;5013148;28;20346;-63
2021/03/01 04:23:36;;;;;;;10.37;6.03;;;3.30;99.90;;;-141.85;100.00;63675.41;5012959;28;20284;-62
2021/03/01 04:26:06;;;;;;;8.60;5.63;;;3.30;99.90;;;-141.85;100.00;63675.41;5012727;28;20688;-63
2021/03/01 04:28:34;;;;;;;9.97;6.10;;;3.20;99.90;;;-141.85;100.00;63675.41;5013225;28;20203;-62
2021/03/01 04:31:06;;;;;;;9.60;5.90;;;3.10;99.90;;;-141.85;100.00;63675.41;5012952;28;20205;-63
2021/03/01 04:33:36;;;;;;;9.17;5.63;;;3.00;99.90;;;-141.85;100.00;63675.41;5013147;28;20364;-64
2021/03/01 04:36:05;;;;;;;9.43;5.80;;;3.10;99.90;;;-141.85;100.00;63675.41;5012370;28;20798;-62
2021/03/01 04:38:33;;;;;;;11.17;6.73;;;3.10;99.90;;;-141.85;100.00;63675.41;5012988;28;20213;-63
2021/03/01 04:41:01;;;;;;;10.60;6.47;;;3.20;99.90;;;-141.85;100.00;63675.41;5012565;28;20224;-62
2021/03/01 04:43:30;;;;;;;9.87;6.33;;;3.30;99.90;;;-141.85;100.00;63675.41;5012989;28;20213;-62
2021/03/01 04:45:58;;;;;;;10.77;6.83;;;3.30;99.90;;;-141.85;100.00;63675.41;5012926;28;20246;-63
2021/03/01 04:48:28;;;;;;;10.80;6.87;;;3.30;99.90;;;-141.85;100.00;63675.41;5012686;28;20298;-64
2021/03/01 04:50:56;;;;;;;12.03;7.13;;;3.40;99.90;;;-141.85;100.00;63675.41;5012545;28;20207;-64
2021/03/01 04:53:24;;;;;;;10.13;6.10;;;3.30;99.90;;;-141.85;100.00;63675.41;5012824;28;20278;-62
2021/03/01 04:55:53;;;;;;;10.00;6.87;;;3.30;99.90;;;-141.85;100.00;63675.41;5012233;28;20243;-62
2021/03/01 04:58:22;;;;;;;11.73;6.87;;;3.30;99.90;;;-141.85;100.00;63675.41;5012781;28;20225;-63
2021/03/01 05:00:51;;;;;;;10.53;6.50;;;3.40;99.90;;;-141.85;100.00;63675.41;5012510;28;20275;-62
2021/03/01 05:03:19;;;;;;;11.03;6.67;;;3.20;99.90;;;-141.85;100.00;63675.41;5012246;28;20794;-62
2021/03/01 05:05:47;;;;;;;11.03;6.70;;;3.10;99.90;;;-141.85;100.00;63675.41;5012218;28;20206;-62
2021/03/01 05:08:16;;;;;;;11.33;6.80;;;3.00;99.90;;;-141.85;100.00;63675.41;5012475;28;20277;-63
2021/03/01 05:10:46;;;;;;;10.27;6.60;;;3.10;99.90;;;-141.85;100.00;63675.41;5012207;28;20234;-63
2021/03/01 05:13:13;;;;;;;11.43;7.20;;;3.00;99.90;;;-141.85;100.00;63675.41;5012284;28;20291;-62
2021/03/01 05:15:40;;;;;;;11.80;7.77;;;3.00;99.90;;;-141.85;100.00;63675.41;5012309;28;20274;-62
2021/03/01 05:18:08;;;;;;;10.83;6.70;;;3.00;99.90;;;-141.85;100.00;63675.41;5012410;28;20194;-63
2021/03/01 05:20:35;;;;;;;12.50;7.10;;;3.00;99.90;;;-141.85;100.00;63675.41;5011965;28;20261;-62
2021/03/01 05:23:04;;;;;;;12.40;6.93;;;3.10;99.90;;;-141.85;100.00;63675.41;5011893;28;20308;-63
2021/03/01 05:25:32;;;;;;;11.60;6.67;;;3.10;99.90;;;-141.85;100.00;63675.41;5011924;28;20662;-63
2021/03/01 05:28:00;;;;;;;11.10;6.50;;;3.20;99.90;;;-141.85;100.00;63675.41;5012184;28;20228;-62
2021/03/01 05:30:27;;;;;;;11.13;6.30;;;3.20;99.90;;;-141.85;100.00;63675.41;5011872;28;20641;-62
2021/03/01 05:32:55;;;;;;;11.90;6.93;;;3.10;99.90;;;-141.85;100.00;63675.41;5011981;28;20929;-63
2021/03/01 05:35:22;;;;;;;10.97;6.57;;;3.00;99.90;;;-141.85;100.00;63675.41;5011458;28;20336;-62
2021/03/01 05:37:50;;;;;;;13.60;7.70;;;3.00;99.90;;;-141.85;100.00;63675.41;5012157;28;20202;-63
2021/03/01 05:40:18;;;;;;;10.90;6.23;;;3.00;99.90;;;-141.85;100.00;63675.41;5011831;28;20906;-62
2021/03/01 05:42:49;;;;;;;12.60;6.87;;;3.10;99.90;;;-141.85;100.00;63675.41;5012269;28;20279;-63
2021/03/01 05:45:16;;;;;;;10.37;6.67;;;3.00;99.90;;;-141.85;100.00;63675.41;5012205;28;20233;-62
2021/03/01 05:47:44;;;;;;;12.17;7.40;;;3.00;99.90;;;-141.85;100.00;63675.41;5015170;28;20248;-62
2021/03/01 05:50:12;;;;;;;10.27;6.63;;;3.00;99.90;;;-141.85;100.00;63675.41;5014039;28;20204;-64
2021/03/01 05:52:46;;;;;;;12.37;7.30;;;3.10;99.90;;;-141.85;100.00;63675.41;5012468;28;20227;-62
2021/03/01 05:55:15;;;;;;;11.43;7.53;;;3.20;99.90;;;-141.85;100.00;63675.41;5011197;28;20217;-62
2021/03/01 05:57:45;;;;;;;11.17;6.60;;;3.20;99.90;;;-141.85;100.00;63675.41;5011783;28;20636;-62
2021/03/01 06:00:14;;;;;;;11.00;6.17;;;3.30;99.90;;;-141.85;100.00;63675.41;5012091;28;20204;-62
2021/03/01 06:02:43;;;;;;;11.40;6.80;;;3.40;99.90;;;-141.85;100.00;63675.41;5011709;28;20245;-63
2021/03/01 06:05:14;;;;;;;12.50;7.60;;;3.40;99.90;;;-141.85;100.00;63675.41;5011741;28;20651;-62
2021/03/01 06:07:41;;;;;;;11.53;7.17;;;3.30;99.90;;;-141.85;100.00;63675.41;5011736;28;20281;-62
2021/03/01 06:10:10;;;;;;;10.43;6.33;;;3.40;99.90;;;-141.85;100.00;63675.41;5011928;28;20209;-63
2021/03/01 06:12:37;;;;;;;11.07;7.10;;;3.40;99.90;;;-141.85;100.00;63675.41;5011858;28;21027;-63
2021/03/01 06:15:09;;;;;;;12.97;7.43;;;3.30;99.90;;;-141.85;100.00;63675.41;5011861;28;20292;-63
2021/03/01 06:17:36;;;;;;;13.13;7.80;;;3.30;99.90;;;-141.85;100.00;63675.41;5007167;28;20195;-62
2021/03/01 06:20:07;;;;;;;12.57;6.90;;;3.20;99.90;;;-141.85;100.00;63675.41;5001211;28;20245;-63
2021/03/01 06:22:44;;;;;;;13.57;7.50;;;3.20;99.90;;;-141.85;100.00;63675.41;4991701;28;20208;-63
2021/03/01 06:25:14;;;;;;;12.33;7.13;;;3.20;99.90;;;-141.85;100.00;63675.41;4992024;28;20245;-63
2021/03/01 06:28:01;;;;;;;12.43;8.03;;;3.10;99.90;;;-141.85;100.00;63675.41;4992299;28;20598;-63
2021/03/01 06:30:31;;;;;;;13.93;7.90;;;3.20;99.90;;;-141.85;100.00;63675.41;4992205;28;20278;-62
2021/03/01 06:33:09;;;;;;;16.13;8.40;;;3.20;99.90;;;-141.85;100.00;63675.41;4992152;28;20192;-62
2021/03/01 06:35:41;;;;;;;14.67;8.13;;;3.30;99.90;;;-141.85;100.00;63675.41;4994259;28;20340;-63
2021/03/01 06:38:22;;;;;;;14.13;8.20;;;3.40;99.90;;;-141.85;100.00;63675.41;4997740;28;20307;-63
2021/03/01 06:41:14;;;;;;;14.47;8.67;;;3.50;99.90;;;-141.85;100.00;63675.41;4999982;28;20328;-62
2021/03/01 06:43:55;;;;;;;16.27;8.70;;;3.60;99.90;;;-141.85;100.00;63675.41;5015073;28;20206;-62
2021/03/01 06:46:25;;;;;;;14.80;8.27;;;3.50;99.90;;;-141.85;100.00;63675.41;5016944;28;20231;-63
2021/03/01 06:48:53;;;;;;;14.27;8.00;;;3.40;99.90;;;-141.85;100.00;63675.41;5009140;28;20218;-62
2021/03/01 06:51:20;;;;;;;16.93;8.73;;;3.30;99.90;;;-141.85;100.00;63675.41;4996035;28;20247;-62
2021/03/01 06:53:59;;;;;;;17.23;8.63;;;3.30;99.90;;;-141.85;100.00;63675.41;4996252;28;20203;-62
2021/03/01 06:56:39;;;;;;;16.17;8.13;;;3.20;99.90;;;-141.85;100.00;63675.41;5006880;28;20229;-62
2021/03/01 06:59:14;;;;;;;14.63;8.40;;;3.20;99.90;;;-141.85;100.00;63675.41;5015683;28;20224;-63
2021/03/01 07:01:51;;;;;;;15.50;8.83;;;3.30;99.90;;;-141.85;100.00;63675.41;5012820;28;20311;-62
2021/03/01 07:04:26;;;;;;;12.87;7.50;;;3.40;99.90;;;-141.85;100.00;63675.41;5004235;28;20265;-62
2021/03/01 07:06:55;;;;;;;16.60;8.73;;;3.40;99.90;;;-141.85;100.00;63675.41;4996195;28;20221;-62
2021/03/01 07:09:25;;;;;;;14.53;8.50;;;3.60;99.90;;;-141.85;100.00;63675.41;5015424;28;20213;-62
2021/03/01 07:11:52;;;;;;;15.63;8.50;;;3.60;99.90;;;-141.85;100.00;63675.41;5015008;28;20297;-63
2021/03/01 07:14:22;;;;;;;14.57;8.10;;;3.70;99.90;;;-141.85;100.00;63675.41;5015179;28;20726;-62
2021/03/01 07:16:53;;;;;;;12.27;7.70;;;3.70;99.90;;;-141.85;100.00;63675.41;5015223;28;20304;-62
2021/03/01 07:19:26;;;;;;;13.30;7.70;;;3.60;99.90;;;-141.85;100.00;63675.41;5015239;28;20272;-61
2021/03/01 07:22:00;;;;;;;13.53;8.53;;;3.50;99.90;;;-141.85;100.00;63675.41;5015191;28;20226;-62
2021/03/01 07:24:29;;;;;;;12.33;7.33;;;3.40;99.90;;;-141.85;100.00;63675.41;5015302;28;20249;-62
2021/03/01 07:27:00;;;;;;;14.50;8.67;;;3.40;99.90;;;-141.85;100.00;63675.41;5011945;28;20669;-63
2021/03/01 07:29:32;;;;;;;14.70;8.20;;;3.30;99.90;;;-141.85;100.00;63675.41;5015051;28;20248;-62
2021/03/01 07:32:03;;;;;;;13.27;8.13;;;3.30;99.90;;;-141.85;100.00;63675.41;5012282;28;20289;-63
2021/03/01 07:34:31;;;;;;;15.53;8.47;;;3.30;99.90;;;-141.85;100.00;63675.41;5003739;28;20254;-68
2021/03/01 07:37:00;;;;;;;14.97;8.80;;;3.40;99.90;;;-141.85;100.00;63675.41;5008670;28;20254;-68
2021/03/01 07:39:29;;;;;;;12.50;7.00;;;3.60;99.90;;;-141.85;100.00;63675.41;5011639;28;20240;-69
2021/03/01 07:41:57;;;;;;;14.87;8.43;;;3.70;99.90;;;-141.85;100.00;63675.41;5011274;28;20256;-68
2021/03/01 07:44:27;;;;;;;12.70;7.43;;;3.80;99.90;;;-141.85;100.00;63675.41;5011624;28;20233;-61
2021/03/01 07:46:56;;;;;;;12.83;8.17;;;3.80;99.90;;;-141.85;100.00;63675.41;5011196;28;20280;-62
2021/03/01 07:49:41;;;;;;;13.53;8.33;;;3.80;99.90;;;-141.85;100.00;63675.41;5011030;28;20638;-62
2021/03/01 07:52:37;;;;;;;12.50;7.87;;;3.80;99.90;;;-141.85;100.00;63675.41;5011269;28;20189;-62
2021/03/01 07:55:09;;;;;;;13.43;8.03;;;3.60;99.90;;;-141.85;100.00;63675.41;5011207;28;20637;-60
2021/03/01 07:57:38;;;;;;;14.23;8.37;;;3.60;99.90;;;-141.85;100.00;63675.41;4991834;28;20285;-62
2021/03/01 08:00:25;;;;;;;14.20;8.03;;;3.50;99.90;;;-141.85;100.00;63675.41;4991932;28;20378;-62
2021/03/01 08:02:52;;;;;;;13.27;7.60;;;3.50;99.90;;;-141.85;100.00;63675.41;4991632;28;20229;-62
2021/03/01 08:05:26;;;;;;;13.10;7.87;;;3.60;99.90;;;-141.85;100.00;63675.41;4991243;28;20247;-62
2021/03/01 08:07:54;;;;;;;13.10;7.60;;;3.70;99.90;;;-141.85;100.00;63675.41;4991960;28;20229;-63
2021/03/01 08:10:44;;;;;;;14.03;8.30;;;3.80;99.90;;;-141.85;100.00;63675.41;4991354;28;20753;-62
2021/03/01 08:13:12;;;;;;;14.00;8.37;;;3.80;99.90;;;-141.85;100.00;63675.41;4991098;28;20233;-63
2021/03/01 08:15:44;;;;;;;14.60;8.10;;;3.90;99.90;;;-141.85;100.00;63675.41;4991453;28;20284;-64
2021/03/01 08:18:13;;;;;;;13.87;7.87;;;3.80;99.90;;;-141.85;100.00;63675.41;4991324;28;20237;-63
2021/03/01 08:20:57;;;;;;;14.87;8.53;;;3.80;99.90;;;-141.85;100.00;63675.41;4990726;28;20202;-63
2021/03/01 08:23:36;;;;;;;14.80;8.53;;;4.00;99.90;;;-141.85;100.00;63675.41;4991346;28;20228;-65
2021/03/01 08:26:05;;;;;;;13.70;7.70;;;4.00;99.90;;;-141.85;100.00;63675.41;4991016;28;20653;-62
2021/03/01 08:28:58;;;;;;;13.40;8.10;;;4.10;99.90;;;-141.85;100.00;63675.41;4995846;28;20304;-62
2021/03/01 08:31:39;;;;;;;13.77;8.57;;;4.20;99.90;;;-141.85;100.00;63675.41;4993473;28;20293;-60
2021/03/01 08:34:31;;;;;;;16.23;9.13;;;4.20;99.90;;;-141.85;100.00;63675.41;4990560;28;20261;-63
2021/03/01 08:37:02;;;;;;;13.87;8.73;;;4.20;99.90;;;-141.85;100.00;63675.41;4995162;28;20281;-63
2021/03/01 08:40:06;;;;;;;16.20;8.77;;;4.10;99.90;;;-141.85;100.00;63675.41;5001715;28;20728;-63
2021/03/01 08:42:54;;;;;;;14.63;8.13;;;4.10;99.90;;;-141.85;100.00;63675.41;5010364;28;20246;-61
2021/03/01 08:45:43;;;;;;;16.93;8.83;;;4.20;99.90;;;-141.85;100.00;63675.41;5010701;28;20273;-63
2021/03/01 08:48:20;;;;;;;14.17;8.23;;;4.20;99.90;;;-141.85;100.00;63675.41;5009565;28;20285;-63
2021/03/01 08:50:51;;;;;;;15.63;9.40;;;4.20;99.90;;;-141.85;100.00;63675.41;5009090;28;20669;-65
2021/03/01 08:53:23;;;;;;;14.37;8.70;;;4.20;99.90;;;-141.85;100.00;63675.41;5009533;28;20246;-65
2021/03/01 08:55:52;;;;;;;14.50;8.87;;;4.40;99.90;;;-141.85;100.00;63675.41;5009179;28;20294;-65
2021/03/01 08:58:20;;;;;;;14.63;9.83;;;4.30;99.90;;;-141.85;100.00;63675.41;5009488;28;20260;-65
2021/03/01 09:00:54;;;;;;;15.33;9.40;;;4.40;99.90;;;-141.85;100.00;63675.41;5009936;28;20257;-65
2021/03/01 09:03:29;;;;;;;14.03;8.73;;;4.40;99.90;;;-141.85;100.00;63675.41;5009836;28;20222;-65
2021/03/01 09:06:07;;;;;;;13.63;8.63;;;4.60;99.90;;;-141.85;100.00;63675.41;5010109;28;20193;-66
2021/03/01 09:08:37;;;;;;;14.53;8.93;;;4.60;99.90;;;-141.85;100.00;63675.41;5010009;28;20277;-64
2021/03/01 09:11:12;;;;;;;15.20;8.80;;;4.70;99.90;;;-141.85;100.00;63675.41;5010050;28;20282;-62
2021/03/01 09:13:40;;;;;;;16.60;9.43;;;4.80;99.90;;;-141.85;100.00;63675.41;5009794;28;20240;-64
2021/03/01 09:16:11;;;;;;;15.23;9.70;;;4.70;99.90;;;-141.85;100.00;63675.41;5009972;28;20225;-64
2021/03/01 09:18:40;;;;;;;14.90;8.90;;;4.60;99.90;;;-141.85;100.00;63675.41;5009623;28;20196;-64
2021/03/01 09:21:09;;;;;;;13.57;8.27;;;4.60;99.90;;;-141.85;100.00;63675.41;5009781;28;20237;-64
2021/03/01 09:23:47;;;;;;;14.90;9.13;;;4.70;99.90;;;-141.85;100.00;63675.41;5009545;28;20298;-63
2021/03/01 09:26:24;;;;;;;13.63;8.70;;;4.80;99.90;;;-141.85;100.00;63675.41;5009807;28;20197;-63
2021/03/01 09:28:54;;;;;;;15.30;9.40;;;4.90;99.90;;;-141.85;100.00;63675.41;5009555;28;20542;-61
2021/03/01 09:31:29;;;;;;;16.50;10.00;;;4.90;99.90;;;-141.85;100.00;63675.41;5009534;28;20695;-64
2021/03/01 09:33:57;;;;;;;16.43;9.50;;;5.00;99.90;;;-141.85;100.00;63675.41;5009470;28;20685;-65
2021/03/01 09:36:29;;;;;;;16.90;10.20;;;5.20;99.90;;;-141.85;100.00;63675.41;5009210;28;20743;-61
2021/03/01 09:38:57;;;;;;;14.37;9.00;;;5.20;99.90;;;-141.85;100.00;63675.41;5009906;28;20263;-61
2021/03/01 09:41:45;;;;;;;16.50;10.17;;;5.00;99.90;;;-141.85;100.00;63675.41;5009372;28;20237;-62
2021/03/01 09:44:21;;;;;;;18.57;10.30;;;5.10;99.90;;;-141.85;100.00;63675.41;5009740;28;20210;-66
2021/03/01 09:46:50;;;;;;;14.60;9.13;;;5.10;99.90;;;-141.85;100.00;63675.41;5009157;28;20233;-64
2021/03/01 09:49:17;;;;;;;15.03;8.93;;;5.20;99.90;;;-141.85;100.00;63675.41;5009517;28;20254;-66
2021/03/01 09:51:46;;;;;;;13.70;9.03;;;5.20;99.90;;;-141.85;100.00;63675.41;5009393;28;20304;-67
2021/03/01 09:54:14;;;;;;;14.77;9.20;;;5.10;99.90;;;-141.85;100.00;63675.41;5000874;28;20242;-63
2021/03/01 09:56:44;;;;;;;16.83;10.20;;;5.10;99.90;;;-141.85;100.00;63675.41;5002634;28;20206;-63
2021/03/01 09:59:12;;;;;;;16.87;10.23;;;5.20;99.90;;;-141.85;100.00;63675.41;5009368;28;20226;-64
2021/03/01 10:01:40;;;;;;;15.87;10.20;;;5.40;99.90;;;-141.85;100.00;63675.41;5009132;28;20320;-63
2021/03/01 10:04:08;;;;;;;16.97;10.83;;;5.40;99.90;;;-141.85;100.00;63675.41;5009015;28;20207;-63
2021/03/01 10:06:38;;;;;;;17.70;11.23;;;5.50;99.90;;;-141.85;100.00;63675.41;5009054;28;20245;-63
2021/03/01 10:09:09;;;;;;;15.73;9.90;;;5.50;99.90;;;-141.85;100.00;63675.41;5011792;28;20253;-63
2021/03/01 10:11:38;;;;;;;17.27;10.47;;;5.50;99.90;;;-141.85;100.00;63675.41;5015677;28;20274;-65
2021/03/01 10:14:08;;;;;;;18.43;10.93;;;5.40;99.90;;;-141.85;100.00;63675.41;5014903;28;20248;-65
2021/03/01 10:16:38;;;;;;;18.67;11.20;;;5.30;99.90;;;-141.85;100.00;63675.41;5012999;28;20301;-64